createdAt,value
2019-02-28T00:00:06.691Z,11.90
2019-02-28T00:02:38.573Z,11.23
2019-02-28T00:05:11.405Z,13.73
2019-02-28T00:07:43.358Z,11.70
2019-02-28T00:10:16.391Z,13.77
2019-02-28T00:12:53.785Z,13.50
2019-02-28T00:15:29.697Z,13.07
2019-02-28T00:18:18.719Z,15.30
2019-02-28T00:20:53.736Z,14.40
2019-02-28T00:23:26.872Z,13.20
2019-02-28T00:25:59.894Z,15.83
2019-02-28T00:28:32.528Z,13.93
2019-02-28T00:31:05.999Z,10.43
2019-02-28T00:33:39.543Z,14.43
2019-02-28T00:36:28.162Z,18.93
2019-02-28T00:39:17.322Z,16.67
2019-02-28T00:41:50.185Z,14.60
2019-02-28T00:44:20.828Z,10.80
2019-02-28T00:46:53.999Z,14.13
2019-02-28T00:49:27.501Z,16.07
2019-02-28T00:52:06.574Z,13.53
2019-02-28T00:54:43.145Z,14.63
2019-02-28T00:57:12.099Z,14.17
2019-02-28T00:59:45.349Z,14.57
2019-02-28T01:02:18.698Z,19.97
2019-02-28T01:04:51.643Z,14.03
2019-02-28T01:07:24.042Z,16.30
2019-02-28T01:09:56.814Z,17.43
2019-02-28T01:12:33.548Z,16.60
2019-02-28T01:15:07.148Z,16.63
2019-02-28T01:17:41.973Z,17.03
2019-02-28T01:20:16.841Z,21.00
2019-02-28T01:22:48.061Z,14.27
2019-02-28T01:25:23.211Z,15.40
2019-02-28T01:27:54.400Z,18.60
2019-02-28T01:30:26.268Z,18.50
2019-02-28T01:32:57.026Z,14.07
2019-02-28T01:35:42.251Z,14.73
2019-02-28T01:38:14.623Z,10.63
2019-02-28T01:40:46.080Z,14.23
2019-02-28T01:43:18.233Z,13.53
2019-02-28T01:45:49.290Z,11.50
2019-02-28T01:48:22.625Z,14.00
2019-02-28T01:51:02.991Z,12.03
2019-02-28T01:53:38.069Z,14.63
2019-02-28T01:56:11.863Z,14.77
2019-02-28T01:58:54.395Z,13.10
2019-02-28T02:01:28.475Z,10.83
2019-02-28T02:04:02.356Z,12.20
2019-02-28T02:06:33.399Z,14.73
2019-02-28T02:09:08.133Z,22.83
2019-02-28T02:11:54.340Z,17.90
2019-02-28T02:14:27.331Z,13.80
2019-02-28T02:17:01.857Z,15.27
2019-02-28T02:19:38.357Z,12.67
2019-02-28T02:22:10.278Z,18.53
2019-02-28T02:24:43.048Z,13.33
2019-02-28T02:27:16.306Z,12.10
2019-02-28T02:29:48.295Z,17.17
2019-02-28T02:32:19.674Z,12.33
2019-02-28T02:34:53.887Z,12.43
2019-02-28T02:37:30.297Z,13.47
2019-02-28T02:40:05.403Z,23.70
2019-02-28T02:42:37.612Z,14.30
2019-02-28T02:45:09.453Z,11.63
2019-02-28T02:47:58.457Z,15.20
2019-02-28T02:50:42.307Z,15.83
2019-02-28T02:53:15.487Z,13.10
2019-02-28T02:55:48.788Z,12.83
2019-02-28T02:58:26.884Z,13.80
2019-02-28T03:00:54.933Z,17.80
2019-02-28T03:03:29.255Z,11.63
2019-02-28T03:06:01.909Z,13.00
2019-02-28T03:08:36.397Z,11.60
2019-02-28T03:11:12.421Z,13.97
2019-02-28T03:13:46.177Z,16.90
2019-02-28T03:16:17.773Z,11.70
2019-02-28T03:18:56.952Z,10.80
2019-02-28T03:21:22.989Z,10.57
2019-02-28T03:23:53.522Z,11.07
2019-02-28T03:26:25.723Z,12.70
2019-02-28T03:28:57.782Z,13.63
2019-02-28T03:31:30.596Z,18.23
2019-02-28T03:34:13.013Z,15.33
2019-02-28T03:36:38.546Z,13.67
2019-02-28T03:39:12.775Z,10.57
2019-02-28T03:41:49.093Z,12.70
2019-02-28T03:44:21.885Z,12.83
2019-02-28T03:47:10.968Z,11.33
2019-02-28T03:49:48.653Z,15.73
2019-02-28T03:52:14.847Z,14.17
2019-02-28T03:54:47.896Z,11.37
2019-02-28T03:57:20.160Z,11.30
2019-02-28T03:59:56.803Z,11.70
2019-02-28T04:02:29.230Z,18.20
2019-02-28T04:04:59.868Z,13.13
2019-02-28T04:07:34.814Z,12.50
2019-02-28T04:10:07.871Z,15.97
2019-02-28T04:12:47.751Z,14.27
2019-02-28T04:15:22.597Z,13.97
2019-02-28T04:18:07.727Z,10.27
2019-02-28T04:20:38.871Z,12.20
2019-02-28T04:23:12.148Z,13.00
2019-02-28T04:25:45.448Z,13.37
2019-02-28T04:28:19.086Z,14.13
2019-02-28T04:30:50.953Z,14.00
2019-02-28T04:33:24.895Z,20.53
2019-02-28T04:36:00.694Z,15.40
2019-02-28T04:38:29.870Z,14.80
2019-02-28T04:41:03.860Z,16.97
2019-02-28T04:43:36.536Z,16.03
2019-02-28T04:46:09.110Z,17.07
2019-02-28T04:48:41.938Z,15.23
2019-02-28T04:51:14.974Z,16.20
2019-02-28T04:53:46.334Z,16.37
2019-02-28T04:56:17.726Z,17.23
2019-02-28T04:58:50.797Z,16.33
2019-02-28T05:01:24.156Z,15.40
2019-02-28T05:03:59.134Z,12.40
2019-02-28T05:06:47.639Z,13.20
2019-02-28T05:09:35.377Z,16.20
2019-02-28T05:12:08.653Z,16.73
2019-02-28T05:14:58.519Z,15.20
2019-02-28T05:17:29.996Z,15.30
2019-02-28T05:20:03.304Z,17.30
2019-02-28T05:22:37.039Z,14.17
2019-02-28T05:25:09.088Z,13.93
2019-02-28T05:27:45.125Z,15.50
2019-02-28T05:30:19.822Z,11.70
2019-02-28T05:32:53.269Z,13.87
2019-02-28T05:35:37.292Z,15.10
2019-02-28T05:38:10.254Z,14.13
2019-02-28T05:40:43.718Z,17.60
2019-02-28T05:43:15.382Z,13.40
2019-02-28T05:45:49.591Z,12.30
2019-02-28T05:48:21.381Z,11.60
2019-02-28T05:50:54.469Z,8.80
2019-02-28T05:53:26.535Z,13.43
2019-02-28T05:56:00.053Z,8.90
2019-02-28T05:58:52.517Z,12.80
2019-02-28T06:01:24.481Z,8.90
2019-02-28T06:03:56.410Z,10.73
2019-02-28T06:06:28.493Z,12.30
2019-02-28T06:09:04.838Z,14.87
2019-02-28T06:11:38.918Z,12.13
2019-02-28T06:14:11.689Z,8.70
2019-02-28T06:16:46.854Z,9.57
2019-02-28T06:19:20.373Z,9.23
2019-02-28T06:22:10.173Z,8.67
2019-02-28T06:24:51.039Z,10.33
2019-02-28T06:27:24.337Z,7.10
2019-02-28T06:29:56.599Z,6.60
2019-02-28T06:32:42.376Z,8.90
2019-02-28T06:35:19.618Z,11.97
2019-02-28T06:37:48.371Z,8.37
2019-02-28T06:40:22.375Z,10.33
2019-02-28T06:42:53.029Z,10.60
2019-02-28T06:45:26.447Z,7.13
2019-02-28T06:47:59.504Z,6.73
2019-02-28T06:50:36.452Z,7.23
2019-02-28T06:53:13.466Z,7.40
2019-02-28T06:55:59.997Z,9.63
2019-02-28T06:58:35.047Z,6.10
2019-02-28T07:01:23.607Z,11.50
2019-02-28T07:03:54.448Z,9.07
2019-02-28T07:06:28.974Z,9.70
2019-02-28T07:09:02.413Z,6.70
2019-02-28T07:11:33.459Z,9.87
2019-02-28T07:14:12.944Z,7.50
2019-02-28T07:16:39.612Z,7.20
2019-02-28T07:19:13.399Z,8.53
2019-02-28T07:21:45.768Z,6.60
2019-02-28T07:24:30.923Z,7.73
2019-02-28T07:27:04.224Z,9.60
2019-02-28T07:29:37.865Z,15.80
2019-02-28T07:32:11.046Z,6.67
2019-02-28T07:34:46.471Z,5.93
2019-02-28T07:37:19.773Z,7.40
2019-02-28T07:39:52.885Z,8.27
2019-02-28T07:42:24.684Z,10.33
2019-02-28T07:44:59.000Z,9.60
2019-02-28T07:47:31.753Z,7.73
2019-02-28T07:50:04.322Z,10.70
2019-02-28T07:52:37.371Z,7.70
2019-02-28T07:55:11.508Z,8.20
2019-02-28T07:57:44.289Z,7.97
2019-02-28T08:00:18.759Z,7.23
2019-02-28T08:02:54.637Z,6.63
2019-02-28T08:05:30.984Z,5.77
2019-02-28T08:08:03.367Z,7.77
2019-02-28T08:10:37.134Z,10.10
2019-02-28T08:13:09.920Z,6.73
2019-02-28T08:15:43.142Z,6.80
2019-02-28T08:18:15.776Z,10.70
2019-02-28T08:20:48.261Z,7.37
2019-02-28T08:23:18.795Z,8.50
2019-02-28T08:25:51.015Z,8.47
2019-02-28T08:28:23.741Z,6.10
2019-02-28T08:30:57.807Z,10.87
2019-02-28T08:33:33.352Z,9.10
2019-02-28T08:36:08.424Z,9.80
2019-02-28T08:38:39.119Z,16.63
2019-02-28T08:41:11.314Z,12.50
2019-02-28T08:43:44.684Z,10.20
2019-02-28T08:46:16.475Z,11.00
2019-02-28T08:48:48.778Z,10.97
2019-02-28T08:51:23.088Z,10.23
2019-02-28T08:53:56.914Z,28.20
2019-02-28T08:56:32.081Z,12.70
2019-02-28T08:59:11.605Z,13.50
2019-02-28T09:01:43.490Z,11.20
2019-02-28T09:04:21.952Z,11.93
2019-02-28T09:06:54.429Z,7.53
2019-02-28T09:09:31.636Z,8.70
2019-02-28T09:12:04.543Z,13.70
2019-02-28T09:14:36.862Z,14.93
2019-02-28T09:17:11.641Z,16.67
2019-02-28T09:20:27.328Z,13.10
2019-02-28T09:23:06.446Z,9.70
2019-02-28T09:25:39.345Z,8.87
2019-02-28T09:28:14.077Z,9.87
2019-02-28T09:30:50.051Z,9.73
2019-02-28T09:33:23.254Z,6.97
2019-02-28T09:36:26.565Z,8.10
2019-02-28T09:39:16.386Z,8.40
2019-02-28T09:41:57.114Z,7.10
2019-02-28T09:44:32.462Z,9.33
2019-02-28T09:47:03.314Z,8.10
2019-02-28T09:49:35.997Z,14.10
2019-02-28T09:52:10.240Z,9.47
2019-02-28T09:54:43.031Z,11.23
2019-02-28T09:57:24.656Z,9.40
2019-02-28T10:00:11.996Z,13.33
2019-02-28T10:03:06.972Z,14.17
2019-02-28T10:06:18.914Z,26.20
2019-02-28T10:08:51.641Z,17.50
2019-02-28T10:11:24.213Z,19.73
2019-02-28T10:13:57.303Z,21.70
2019-02-28T10:16:30.592Z,15.10
2019-02-28T10:19:05.242Z,13.13
2019-02-28T10:21:51.915Z,16.80
2019-02-28T10:28:03.967Z,14.87
2019-02-28T10:30:37.918Z,17.17
2019-02-28T10:33:20.320Z,14.10
2019-02-28T10:36:13.746Z,18.50
2019-02-28T10:38:45.701Z,20.60
2019-02-28T10:46:20.105Z,14.67
2019-02-28T10:49:08.091Z,22.43
2019-02-28T10:52:34.325Z,18.60
2019-02-28T10:55:23.591Z,17.90
2019-02-28T10:58:00.873Z,18.60
2019-02-28T11:00:36.125Z,21.43
2019-02-28T11:03:09.649Z,18.33
2019-02-28T11:05:47.288Z,18.07
2019-02-28T11:08:31.835Z,12.70
2019-02-28T11:11:14.470Z,13.70
2019-02-28T11:13:52.644Z,23.67
2019-02-28T11:16:28.134Z,15.30
2019-02-28T11:19:00.746Z,23.13
2019-02-28T11:21:33.737Z,16.07
2019-02-28T11:24:08.697Z,15.67
2019-02-28T11:26:41.347Z,20.03
2019-02-28T11:29:19.981Z,19.23
2019-02-28T11:31:54.176Z,20.97
2019-02-28T11:37:32.543Z,20.10
2019-02-28T11:40:21.588Z,18.07
2019-02-28T11:43:04.260Z,15.63
2019-02-28T11:45:38.687Z,18.20
2019-02-28T11:48:12.785Z,18.13
2019-02-28T11:51:02.466Z,24.90
2019-02-28T11:53:38.962Z,19.47
2019-02-28T11:56:08.329Z,21.23
2019-02-28T11:58:41.431Z,22.13
2019-02-28T12:01:14.992Z,21.63
2019-02-28T12:03:49.143Z,15.73
2019-02-28T12:06:26.396Z,17.67
2019-02-28T12:09:00.098Z,19.77
2019-02-28T12:11:36.572Z,19.80
2019-02-28T12:14:07.000Z,16.83
2019-02-28T12:16:40.991Z,18.43
2019-02-28T12:19:19.518Z,20.87
2019-02-28T12:22:00.142Z,19.70
2019-02-28T12:24:44.715Z,14.60
2019-02-28T12:27:16.024Z,23.33
2019-02-28T12:29:59.237Z,14.70
2019-02-28T12:32:31.891Z,15.30
2019-02-28T12:35:06.279Z,24.37
2019-02-28T12:37:38.267Z,16.90
2019-02-28T12:40:13.674Z,17.73
2019-02-28T12:42:46.129Z,18.57
2019-02-28T12:45:38.456Z,16.67
2019-02-28T12:48:13.755Z,16.30
2019-02-28T12:50:46.114Z,18.83
2019-02-28T12:53:24.299Z,19.50
2019-02-28T12:55:52.986Z,14.90
2019-02-28T12:58:25.022Z,18.70
2019-02-28T13:01:00.777Z,16.53
2019-02-28T13:03:33.570Z,17.50
2019-02-28T13:06:23.686Z,20.77
2019-02-28T13:08:55.330Z,16.90
2019-02-28T13:11:29.312Z,17.20
2019-02-28T13:14:06.225Z,20.53
2019-02-28T13:16:37.350Z,16.17
2019-02-28T13:19:26.718Z,18.57
2019-02-28T13:22:13.212Z,16.50
2019-02-28T13:24:47.638Z,17.43
2019-02-28T13:27:20.037Z,21.63
2019-02-28T13:29:53.666Z,16.77
2019-02-28T13:32:27.094Z,18.70
2019-02-28T13:35:03.104Z,19.00
2019-02-28T13:37:37.442Z,15.97
2019-02-28T13:40:10.380Z,18.87
2019-02-28T13:42:42.409Z,23.33
2019-02-28T13:45:23.141Z,20.10
2019-02-28T13:47:53.011Z,16.60
2019-02-28T13:50:27.051Z,16.60
2019-02-28T13:53:17.504Z,18.53
2019-02-28T13:55:52.632Z,18.47
2019-02-28T13:58:39.276Z,16.87
2019-02-28T14:01:06.790Z,18.40
2019-02-28T14:03:42.258Z,18.97
2019-02-28T14:06:18.740Z,17.37
2019-02-28T14:08:47.649Z,16.10
2019-02-28T14:11:21.357Z,20.00
2019-02-28T14:13:54.587Z,19.10
2019-02-28T14:16:27.654Z,25.33
2019-02-28T14:19:04.084Z,18.13
2019-02-28T14:21:52.988Z,16.10
2019-02-28T14:24:42.231Z,18.70
2019-02-28T14:27:15.523Z,19.33
2019-02-28T14:29:49.704Z,20.43
2019-02-28T14:32:21.988Z,16.30
2019-02-28T14:34:57.290Z,16.53
2019-02-28T14:37:27.578Z,15.67
2019-02-28T14:39:58.162Z,24.10
2019-02-28T14:42:29.773Z,17.67
2019-02-28T14:45:04.000Z,14.40
2019-02-28T14:47:56.521Z,17.73
2019-02-28T14:53:50.092Z,16.13
2019-02-28T15:00:39.037Z,16.73
2019-02-28T15:03:44.674Z,14.33
2019-02-28T15:06:17.533Z,14.47
2019-02-28T15:08:51.948Z,16.30
2019-02-28T15:11:26.079Z,18.83
2019-02-28T15:14:05.644Z,17.73
2019-02-28T15:17:14.196Z,20.60
2019-02-28T15:19:47.334Z,17.77
2019-02-28T15:22:22.466Z,19.97
2019-02-28T15:25:15.274Z,14.20
2019-02-28T15:28:03.411Z,14.73
2019-02-28T15:31:25.111Z,18.40
2019-02-28T15:35:02.292Z,17.40
2019-02-28T15:37:57.081Z,22.57
2019-02-28T15:41:44.920Z,18.40
2019-02-28T15:44:15.931Z,23.47
2019-02-28T15:46:52.240Z,20.57
2019-02-28T15:49:43.272Z,16.60
2019-02-28T15:52:14.430Z,20.20
2019-02-28T15:54:53.208Z,18.83
2019-02-28T15:57:29.832Z,21.23
2019-02-28T16:00:02.137Z,19.50
2019-02-28T16:02:38.640Z,22.47
2019-02-28T16:05:10.993Z,18.53
2019-02-28T16:07:51.773Z,21.07
2019-02-28T16:10:31.837Z,20.80
2019-02-28T16:13:22.764Z,18.17
2019-02-28T16:16:13.395Z,21.40
2019-02-28T16:19:06.078Z,22.10
2019-02-28T16:22:20.714Z,27.07
2019-02-28T16:25:14.831Z,20.40
2019-02-28T16:27:54.524Z,23.93
2019-02-28T16:31:06.531Z,20.27
2019-02-28T16:33:39.438Z,25.90
2019-02-28T16:36:13.190Z,18.60
2019-02-28T16:38:50.840Z,24.63
2019-02-28T16:41:26.828Z,19.60
2019-02-28T16:44:07.551Z,20.40
2019-02-28T16:46:46.499Z,22.70
2019-02-28T16:49:44.469Z,21.77
2019-02-28T16:52:21.409Z,23.80
2019-02-28T16:55:45.828Z,22.67
2019-02-28T16:58:30.065Z,24.53
2019-02-28T17:01:51.344Z,23.00
2019-02-28T17:04:42.988Z,22.33
2019-02-28T17:07:21.311Z,19.53
2019-02-28T17:10:18.214Z,25.20
2019-02-28T17:13:39.395Z,24.60
2019-02-28T17:16:42.052Z,26.47
2019-02-28T17:19:15.373Z,23.07
2019-02-28T17:22:04.382Z,21.40
2019-02-28T17:24:57.889Z,26.50
2019-02-28T17:27:44.276Z,23.70
2019-02-28T17:30:51.036Z,24.40
2019-02-28T17:33:22.424Z,25.87
2019-02-28T17:36:17.918Z,28.60
2019-02-28T17:38:52.195Z,24.33
2019-02-28T17:41:26.506Z,26.40
2019-02-28T17:45:06.699Z,26.80
2019-02-28T17:48:12.676Z,28.70
2019-02-28T17:51:27.318Z,28.30
2019-02-28T17:54:39.681Z,30.83
2019-02-28T17:57:33.921Z,45.40
2019-02-28T18:00:52.908Z,29.17
2019-02-28T18:04:47.939Z,22.73
2019-02-28T18:08:54.453Z,24.27
2019-02-28T18:12:12.679Z,25.30
2019-02-28T18:15:10.498Z,24.13
2019-02-28T18:18:08.829Z,23.90
2019-02-28T18:21:28.504Z,25.83
2019-02-28T18:24:45.450Z,24.87
2019-02-28T18:27:51.080Z,28.73
2019-02-28T18:30:53.428Z,27.63
2019-02-28T18:33:30.947Z,27.17
2019-02-28T18:36:05.085Z,24.67
2019-02-28T18:38:38.935Z,22.30
2019-02-28T18:41:17.863Z,24.00
2019-02-28T18:43:50.747Z,25.33
2019-02-28T18:46:22.670Z,22.40
2019-02-28T18:48:55.833Z,21.53
2019-02-28T18:51:26.575Z,25.73
2019-02-28T18:53:57.994Z,25.97
2019-02-28T18:56:30.809Z,22.90
2019-02-28T18:59:02.555Z,25.10
2019-02-28T19:01:34.200Z,32.03
2019-02-28T19:04:06.153Z,24.60
2019-02-28T19:06:38.267Z,28.83
2019-02-28T19:09:28.949Z,27.00
2019-02-28T19:12:14.812Z,24.33
2019-02-28T19:14:47.104Z,23.93
2019-02-28T19:17:18.099Z,27.93
2019-02-28T19:20:08.735Z,22.90
2019-02-28T19:22:51.228Z,25.37
2019-02-28T19:25:23.016Z,27.93
2019-02-28T19:27:55.395Z,23.70
2019-02-28T19:30:26.982Z,26.93
2019-02-28T19:32:58.592Z,22.60
2019-02-28T19:35:48.348Z,25.67
2019-02-28T19:42:21.391Z,23.00
2019-02-28T19:44:55.270Z,20.03
2019-02-28T19:47:31.753Z,21.33
2019-02-28T19:50:05.943Z,25.40
2019-02-28T20:04:59.314Z,18.67
2019-02-28T20:07:58.552Z,22.30
2019-02-28T20:11:07.246Z,22.40
2019-02-28T20:13:59.929Z,18.40
2019-02-28T20:16:52.937Z,18.50
2019-02-28T20:20:16.001Z,18.30
2019-02-28T20:22:57.735Z,21.90
2019-02-28T20:29:36.189Z,17.10
2019-02-28T20:32:32.165Z,23.50
2019-02-28T20:38:43.087Z,17.07
2019-02-28T20:46:01.037Z,19.10
2019-02-28T21:05:01.182Z,19.33
2019-02-28T21:07:44.504Z,20.70
2019-02-28T21:10:24.930Z,19.80
2019-02-28T21:13:23.852Z,19.90
2019-02-28T21:19:41.020Z,18.40
2019-02-28T21:22:15.823Z,17.20
2019-02-28T21:24:46.361Z,17.83
2019-02-28T21:27:18.296Z,19.37
2019-02-28T21:29:49.685Z,16.40
2019-02-28T21:32:22.572Z,19.50
2019-02-28T21:34:53.854Z,18.53
2019-02-28T21:37:26.895Z,18.17
2019-02-28T21:39:57.878Z,17.87
2019-02-28T21:42:31.305Z,18.10
2019-02-28T21:45:05.636Z,17.80
2019-02-28T21:47:38.650Z,18.30
2019-02-28T21:50:10.926Z,19.77
2019-02-28T21:52:42.931Z,17.23
2019-02-28T21:55:16.141Z,16.73
2019-02-28T21:57:46.831Z,18.83
2019-02-28T22:00:22.175Z,19.40
2019-02-28T22:02:58.484Z,15.40
2019-02-28T22:05:36.986Z,21.83
2019-02-28T22:08:26.429Z,16.50
2019-02-28T22:10:58.381Z,19.40
2019-02-28T22:13:29.209Z,19.10
2019-02-28T22:16:02.752Z,19.33
2019-02-28T22:18:34.207Z,18.90
2019-02-28T22:21:04.818Z,15.60
2019-02-28T22:23:40.885Z,19.13
2019-02-28T22:26:13.892Z,19.00
2019-02-28T22:28:46.188Z,18.93
2019-02-28T22:31:42.446Z,16.20
2019-02-28T22:34:30.356Z,18.53
2019-02-28T22:37:04.360Z,20.03
2019-02-28T22:39:39.031Z,18.47
2019-02-28T22:42:21.799Z,19.37
2019-02-28T22:44:47.072Z,18.37
2019-02-28T22:47:38.925Z,19.00
2019-02-28T22:50:15.847Z,21.63
2019-02-28T22:52:49.411Z,20.60
2019-02-28T22:55:23.893Z,21.93
2019-02-28T22:57:57.832Z,22.60
2019-02-28T23:00:46.769Z,21.00
2019-02-28T23:03:38.196Z,26.50
2019-02-28T23:06:27.668Z,23.53
2019-02-28T23:09:15.940Z,24.23
2019-02-28T23:11:51.926Z,24.57
2019-02-28T23:14:23.954Z,24.93
2019-02-28T23:16:57.073Z,24.70
2019-02-28T23:19:29.402Z,21.13
2019-02-28T23:22:03.020Z,22.10
2019-02-28T23:24:34.154Z,25.83
2019-02-28T23:27:23.933Z,29.63
2019-02-28T23:30:41.153Z,25.70
2019-02-28T23:33:29.987Z,26.47
2019-02-28T23:36:19.014Z,25.80
2019-02-28T23:38:51.079Z,23.20
2019-02-28T23:41:24.382Z,28.90
2019-02-28T23:43:58.369Z,27.73
2019-02-28T23:46:36.274Z,26.67
2019-02-28T23:49:08.358Z,31.17
2019-02-28T23:51:57.724Z,28.60
2019-02-28T23:54:36.076Z,24.70
2019-02-28T23:57:07.277Z,31.00
2019-02-28T23:59:42.187Z,30.57
